EGTK

Oxford (Kidlington) Airport

Kidlington, United Kingdom
METAR EGTK 261250Z 05013KT 6000 SCT017 21/17 Q1019
Observed Flight Rules
May-26 @ 12:50 UTC (32 minutes ago) Marginal Visual Flight Rules
Wind Visibility Clouds
50° at 13 knots 6,003 meters
  • Scattered at 1,700' AGL
Temperatures Readings
Current 21°C / 70°F
Dewpoint 17°C / 63°F
Humidity 78%
Altimeter 30.09" Hg
Pressure 1019 hPa
Elevation 82
METAR EGTK 261250Z 05013KT 6000 SCT017 21/17 Q1019
Observed Flight Rules
May-26 @ 12:50 UTC
(32 minutes ago)
MVFR
Wind Visibility
50° at 13 knots 6,003 meters
Clouds
  • Scattered at 1,700' AGL
Temperature Dewpoint
21°C / 70°F 17°C / 63°F
Humidity Altimeter Pressure
78% 30.09" Hg 1019 hPa